Snowdon, United Kingdom
Current Conditions -  °F | °C
As of 9:50 PM on Sunday 25 Jan 2015 (Local Time) from EGOV Reporting Station
Haze Haze  
Wind Chill: 41°   Ceiling: 2700
Heat Index: 48°   Visibility: 5mi
Dew Point: 48°   Wind: 20mph
Humidity: 100%   Direction: 200°SSW
Pressure: 30.15"   Gusts: NA
Location:  53.07°N, 4.08°W
Report Text: EGOV 252150Z AUTO 20017KT 8000 BR BKN027/// BKN050/// 09/09 Q1021
Loading
Personal Weather Stations






























Interactive Weather Map New forecast layout! Learn more

10-Day Weather Forecast

Advertisements
Track Severe Weather on mobile